sensor_id;sensor_type;location;lat;lon;timestamp;pressure;altitude;pressure_sealevel;temperature;humidity
44351;BME280;62766;62.622;17.912;2023-09-30T00:00:08;99790.57;;;11.82;74.91
44351;BME280;62766;62.622;17.912;2023-09-30T00:02:37;99784.71;;;11.87;75.59
44351;BME280;62766;62.622;17.912;2023-09-30T00:05:07;99783.04;;;11.69;75.56
44351;BME280;62766;62.622;17.912;2023-09-30T00:07:35;99773.00;;;11.79;75.04
44351;BME280;62766;62.622;17.912;2023-09-30T00:10:04;99760.82;;;11.73;75.60
44351;BME280;62766;62.622;17.912;2023-09-30T00:12:35;99759.13;;;11.71;75.69
44351;BME280;62766;62.622;17.912;2023-09-30T00:15:04;99763.70;;;11.73;75.49
44351;BME280;62766;62.622;17.912;2023-09-30T00:17:33;99771.96;;;11.69;75.49
44351;BME280;62766;62.622;17.912;2023-09-30T00:20:02;99780.55;;;11.64;74.90
44351;BME280;62766;62.622;17.912;2023-09-30T00:22:30;99780.68;;;11.67;74.68
44351;BME280;62766;62.622;17.912;2023-09-30T00:24:58;99780.74;;;11.62;75.59
44351;BME280;62766;62.622;17.912;2023-09-30T00:27:26;99781.59;;;11.52;76.04
44351;BME280;62766;62.622;17.912;2023-09-30T00:29:55;99777.17;;;11.62;76.62
44351;BME280;62766;62.622;17.912;2023-09-30T00:32:24;99772.41;;;11.57;76.84
44351;BME280;62766;62.622;17.912;2023-09-30T00:34:53;99769.46;;;11.61;77.53
44351;BME280;62766;62.622;17.912;2023-09-30T00:37:22;99773.89;;;11.67;77.08
44351;BME280;62766;62.622;17.912;2023-09-30T00:39:50;99775.34;;;11.70;76.11
44351;BME280;62766;62.622;17.912;2023-09-30T00:42:18;99771.11;;;11.71;75.04
44351;BME280;62766;62.622;17.912;2023-09-30T00:44:47;99764.43;;;11.85;73.65
44351;BME280;62766;62.622;17.912;2023-09-30T00:47:15;99756.86;;;11.72;73.35
44351;BME280;62766;62.622;17.912;2023-09-30T00:49:45;99750.73;;;11.77;73.94
44351;BME280;62766;62.622;17.912;2023-09-30T00:52:13;99747.50;;;11.69;73.12
44351;BME280;62766;62.622;17.912;2023-09-30T00:54:43;99746.68;;;11.61;73.44
44351;BME280;62766;62.622;17.912;2023-09-30T00:57:13;99745.42;;;11.60;73.78
44351;BME280;62766;62.622;17.912;2023-09-30T00:59:42;99741.53;;;11.57;74.19
44351;BME280;62766;62.622;17.912;2023-09-30T01:02:11;99741.48;;;11.55;75.92
44351;BME280;62766;62.622;17.912;2023-09-30T01:04:40;99740.67;;;11.66;77.00
44351;BME280;62766;62.622;17.912;2023-09-30T01:07:08;99743.05;;;11.59;77.11
44351;BME280;62766;62.622;17.912;2023-09-30T01:09:37;99742.07;;;11.70;77.63
44351;BME280;62766;62.622;17.912;2023-09-30T01:12:07;99744.62;;;11.54;77.91
44351;BME280;62766;62.622;17.912;2023-09-30T01:14:36;99742.93;;;11.61;78.04
44351;BME280;62766;62.622;17.912;2023-09-30T01:17:05;99739.93;;;11.70;77.71
44351;BME280;62766;62.622;17.912;2023-09-30T01:19:34;99735.32;;;11.61;77.81
44351;BME280;62766;62.622;17.912;2023-09-30T01:22:02;99729.82;;;11.73;77.26
44351;BME280;62766;62.622;17.912;2023-09-30T01:24:38;99723.79;;;11.77;77.05
44351;BME280;62766;62.622;17.912;2023-09-30T01:27:07;99726.90;;;11.92;76.79
44351;BME280;62766;62.622;17.912;2023-09-30T01:29:35;99722.39;;;11.84;76.59
44351;BME280;62766;62.622;17.912;2023-09-30T01:32:04;99718.82;;;11.77;75.85
44351;BME280;62766;62.622;17.912;2023-09-30T01:34:32;99709.76;;;11.78;75.18
44351;BME280;62766;62.622;17.912;2023-09-30T01:37:02;99700.38;;;11.72;74.09
44351;BME280;62766;62.622;17.912;2023-09-30T01:39:30;99693.72;;;11.59;73.94
44351;BME280;62766;62.622;17.912;2023-09-30T01:42:00;99689.08;;;11.57;73.82
44351;BME280;62766;62.622;17.912;2023-09-30T01:44:29;99683.57;;;11.60;73.51
44351;BME280;62766;62.622;17.912;2023-09-30T01:46:58;99679.45;;;11.57;73.39
44351;BME280;62766;62.622;17.912;2023-09-30T01:49:27;99668.84;;;11.51;72.84
44351;BME280;62766;62.622;17.912;2023-09-30T01:51:55;99672.91;;;11.63;72.90
44351;BME280;62766;62.622;17.912;2023-09-30T01:54:24;99685.33;;;11.60;73.29
44351;BME280;62766;62.622;17.912;2023-09-30T01:56:52;99686.75;;;11.67;73.93
44351;BME280;62766;62.622;17.912;2023-09-30T01:59:20;99676.59;;;11.70;74.09
44351;BME280;62766;62.622;17.912;2023-09-30T02:01:49;99672.99;;;11.59;74.43
44351;BME280;62766;62.622;17.912;2023-09-30T02:04:18;99668.17;;;11.80;74.05
44351;BME280;62766;62.622;17.912;2023-09-30T02:06:47;99675.00;;;11.79;73.64
44351;BME280;62766;62.622;17.912;2023-09-30T02:09:16;99680.63;;;11.83;73.40
44351;BME280;62766;62.622;17.912;2023-09-30T02:11:45;99681.86;;;11.92;73.46
44351;BME280;62766;62.622;17.912;2023-09-30T02:14:13;99684.48;;;11.90;73.13
44351;BME280;62766;62.622;17.912;2023-09-30T02:16:43;99680.89;;;11.92;73.01
44351;BME280;62766;62.622;17.912;2023-09-30T02:19:12;99677.90;;;11.83;72.91
44351;BME280;62766;62.622;17.912;2023-09-30T02:21:43;99676.73;;;11.96;73.08
44351;BME280;62766;62.622;17.912;2023-09-30T02:24:12;99668.08;;;11.90;72.84
44351;BME280;62766;62.622;17.912;2023-09-30T02:26:41;99658.94;;;12.01;73.01
44351;BME280;62766;62.622;17.912;2023-09-30T02:29:10;99659.77;;;11.84;72.82
44351;BME280;62766;62.622;17.912;2023-09-30T02:31:39;99659.90;;;11.84;73.38
44351;BME280;62766;62.622;17.912;2023-09-30T02:34:09;99655.61;;;11.81;73.67
44351;BME280;62766;62.622;17.912;2023-09-30T02:36:37;99652.12;;;11.91;73.87
44351;BME280;62766;62.622;17.912;2023-09-30T02:39:06;99648.32;;;12.10;73.99
44351;BME280;62766;62.622;17.912;2023-09-30T02:41:35;99640.55;;;12.02;74.03
44351;BME280;62766;62.622;17.912;2023-09-30T02:44:04;99636.04;;;12.10;74.34
44351;BME280;62766;62.622;17.912;2023-09-30T02:46:32;99634.84;;;12.04;74.13
44351;BME280;62766;62.622;17.912;2023-09-30T02:49:01;99626.81;;;12.00;73.89
44351;BME280;62766;62.622;17.912;2023-09-30T02:51:28;99624.94;;;12.10;73.68
44351;BME280;62766;62.622;17.912;2023-09-30T02:53:57;99629.66;;;12.16;73.48
44351;BME280;62766;62.622;17.912;2023-09-30T02:56:25;99618.12;;;12.22;73.68
44351;BME280;62766;62.622;17.912;2023-09-30T02:58:54;99612.17;;;12.20;73.56
44351;BME280;62766;62.622;17.912;2023-09-30T03:01:22;99610.07;;;12.12;73.68
44351;BME280;62766;62.622;17.912;2023-09-30T03:03:51;99602.23;;;12.03;74.18
44351;BME280;62766;62.622;17.912;2023-09-30T03:06:19;99590.82;;;12.01;74.45
44351;BME280;62766;62.622;17.912;2023-09-30T03:08:47;99573.38;;;12.11;74.38
44351;BME280;62766;62.622;17.912;2023-09-30T03:11:16;99562.79;;;11.94;73.96
44351;BME280;62766;62.622;17.912;2023-09-30T03:13:45;99563.14;;;11.86;72.87
44351;BME280;62766;62.622;17.912;2023-09-30T03:16:13;99579.72;;;11.97;72.26
44351;BME280;62766;62.622;17.912;2023-09-30T03:18:42;99592.13;;;11.83;72.89
44351;BME280;62766;62.622;17.912;2023-09-30T03:21:13;99594.44;;;11.99;73.29
44351;BME280;62766;62.622;17.912;2023-09-30T03:23:43;99588.43;;;11.73;73.38
44351;BME280;62766;62.622;17.912;2023-09-30T03:26:13;99579.23;;;11.67;73.42
44351;BME280;62766;62.622;17.912;2023-09-30T03:28:43;99578.04;;;11.61;73.50
44351;BME280;62766;62.622;17.912;2023-09-30T03:31:11;99587.97;;;11.54;73.45
44351;BME280;62766;62.622;17.912;2023-09-30T03:33:41;99590.25;;;11.60;73.54
44351;BME280;62766;62.622;17.912;2023-09-30T03:36:10;99590.08;;;11.60;73.49
44351;BME280;62766;62.622;17.912;2023-09-30T03:38:38;99594.81;;;11.70;73.42
44351;BME280;62766;62.622;17.912;2023-09-30T03:41:07;99594.83;;;11.74;73.19
44351;BME280;62766;62.622;17.912;2023-09-30T03:43:36;99595.28;;;11.76;73.17
44351;BME280;62766;62.622;17.912;2023-09-30T03:46:04;99597.25;;;11.66;72.98
44351;BME280;62766;62.622;17.912;2023-09-30T03:48:32;99596.47;;;11.78;72.38
44351;BME280;62766;62.622;17.912;2023-09-30T03:51:08;99592.14;;;11.60;72.47
44351;BME280;62766;62.622;17.912;2023-09-30T03:53:35;99589.54;;;11.60;72.69
44351;BME280;62766;62.622;17.912;2023-09-30T03:56:04;99590.48;;;11.64;72.32
44351;BME280;62766;62.622;17.912;2023-09-30T03:58:33;99591.64;;;11.47;72.19
44351;BME280;62766;62.622;17.912;2023-09-30T04:03:20;99587.49;;;11.51;72.40
44351;BME280;62766;62.622;17.912;2023-09-30T04:05:49;99583.40;;;11.43;72.77
44351;BME280;62766;62.622;17.912;2023-09-30T04:08:17;99581.35;;;11.36;73.41
44351;BME280;62766;62.622;17.912;2023-09-30T04:10:45;99576.59;;;11.34;73.49
44351;BME280;62766;62.622;17.912;2023-09-30T04:13:13;99571.84;;;11.21;72.68
44351;BME280;62766;62.622;17.912;2023-09-30T04:15:42;99569.81;;;11.08;72.35
44351;BME280;62766;62.622;17.912;2023-09-30T04:18:10;99570.61;;;11.08;72.35
44351;BME280;62766;62.622;17.912;2023-09-30T04:20:38;99566.08;;;11.13;72.12
44351;BME280;62766;62.622;17.912;2023-09-30T04:23:07;99557.48;;;11.32;71.62
44351;BME280;62766;62.622;17.912;2023-09-30T04:25:36;99553.69;;;11.14;71.36
44351;BME280;62766;62.622;17.912;2023-09-30T04:28:04;99547.01;;;11.21;70.82
44351;BME280;62766;62.622;17.912;2023-09-30T04:30:32;99548.62;;;11.17;70.73
44351;BME280;62766;62.622;17.912;2023-09-30T04:33:01;99550.34;;;11.15;70.82
44351;BME280;62766;62.622;17.912;2023-09-30T04:35:30;99546.57;;;11.19;71.03
44351;BME280;62766;62.622;17.912;2023-09-30T04:37:58;99543.82;;;11.08;71.11
44351;BME280;62766;62.622;17.912;2023-09-30T04:40:27;99542.57;;;11.03;71.32
44351;BME280;62766;62.622;17.912;2023-09-30T04:42:55;99539.16;;;11.08;71.07
44351;BME280;62766;62.622;17.912;2023-09-30T04:45:23;99530.61;;;10.90;70.85
44351;BME280;62766;62.622;17.912;2023-09-30T04:47:51;99526.27;;;11.02;70.29
44351;BME280;62766;62.622;17.912;2023-09-30T04:50:19;99524.89;;;10.86;70.19
44351;BME280;62766;62.622;17.912;2023-09-30T04:52:48;99522.40;;;10.80;70.30
44351;BME280;62766;62.622;17.912;2023-09-30T04:55:16;99519.03;;;10.67;70.78
44351;BME280;62766;62.622;17.912;2023-09-30T04:57:46;99517.75;;;10.65;70.89
44351;BME280;62766;62.622;17.912;2023-09-30T05:00:16;99516.83;;;10.71;70.77
44351;BME280;62766;62.622;17.912;2023-09-30T05:02:45;99514.97;;;10.55;70.87
44351;BME280;62766;62.622;17.912;2023-09-30T05:05:14;99514.27;;;10.74;70.87
44351;BME280;62766;62.622;17.912;2023-09-30T05:07:43;99518.26;;;10.64;71.34
44351;BME280;62766;62.622;17.912;2023-09-30T05:10:12;99520.73;;;10.61;71.84
44351;BME280;62766;62.622;17.912;2023-09-30T05:12:40;99521.06;;;10.68;72.62
44351;BME280;62766;62.622;17.912;2023-09-30T05:15:10;99525.38;;;10.52;72.53
44351;BME280;62766;62.622;17.912;2023-09-30T05:17:38;99525.85;;;10.70;72.78
44351;BME280;62766;62.622;17.912;2023-09-30T05:20:07;99523.91;;;10.59;72.86
44351;BME280;62766;62.622;17.912;2023-09-30T05:22:36;99523.37;;;10.75;72.85
44351;BME280;62766;62.622;17.912;2023-09-30T05:25:06;99521.19;;;10.76;72.80
44351;BME280;62766;62.622;17.912;2023-09-30T05:27:35;99520.78;;;10.86;73.26
44351;BME280;62766;62.622;17.912;2023-09-30T05:30:03;99521.66;;;10.78;73.04
44351;BME280;62766;62.622;17.912;2023-09-30T05:32:33;99520.46;;;10.89;73.04
44351;BME280;62766;62.622;17.912;2023-09-30T05:35:02;99516.94;;;10.98;72.57
44351;BME280;62766;62.622;17.912;2023-09-30T05:37:31;99516.33;;;11.14;72.38
44351;BME280;62766;62.622;17.912;2023-09-30T05:39:59;99517.70;;;11.01;71.82
44351;BME280;62766;62.622;17.912;2023-09-30T05:42:28;99517.48;;;11.13;71.80
44351;BME280;62766;62.622;17.912;2023-09-30T05:44:57;99515.62;;;11.16;71.66
44351;BME280;62766;62.622;17.912;2023-09-30T05:47:26;99518.48;;;11.11;71.80
44351;BME280;62766;62.622;17.912;2023-09-30T05:49:55;99520.04;;;11.04;71.90
44351;BME280;62766;62.622;17.912;2023-09-30T05:52:23;99519.05;;;11.11;72.06
44351;BME280;62766;62.622;17.912;2023-09-30T05:54:52;99520.90;;;11.08;70.69
44351;BME280;62766;62.622;17.912;2023-09-30T05:57:22;99527.05;;;10.98;70.32
44351;BME280;62766;62.622;17.912;2023-09-30T05:59:50;99529.91;;;11.15;70.29
44351;BME280;62766;62.622;17.912;2023-09-30T06:02:20;99531.33;;;11.08;70.59
44351;BME280;62766;62.622;17.912;2023-09-30T06:04:48;99527.92;;;11.14;70.60
44351;BME280;62766;62.622;17.912;2023-09-30T06:07:16;99526.96;;;11.17;70.17
44351;BME280;62766;62.622;17.912;2023-09-30T06:09:45;99525.31;;;11.23;70.16
44351;BME280;62766;62.622;17.912;2023-09-30T06:12:14;99525.10;;;11.11;70.07
44351;BME280;62766;62.622;17.912;2023-09-30T06:14:43;99535.65;;;11.13;69.98
44351;BME280;62766;62.622;17.912;2023-09-30T06:17:11;99540.72;;;11.23;69.69
44351;BME280;62766;62.622;17.912;2023-09-30T06:19:40;99541.95;;;11.25;69.55
44351;BME280;62766;62.622;17.912;2023-09-30T06:22:08;99547.53;;;11.14;69.64
44351;BME280;62766;62.622;17.912;2023-09-30T06:24:37;99543.31;;;11.21;69.67
44351;BME280;62766;62.622;17.912;2023-09-30T06:27:05;99543.79;;;11.43;69.53
44351;BME280;62766;62.622;17.912;2023-09-30T06:29:34;99546.76;;;11.38;69.45
44351;BME280;62766;62.622;17.912;2023-09-30T06:32:02;99553.37;;;11.41;69.53
44351;BME280;62766;62.622;17.912;2023-09-30T06:34:31;99555.75;;;11.40;69.90
44351;BME280;62766;62.622;17.912;2023-09-30T06:36:59;99550.20;;;11.65;70.38
44351;BME280;62766;62.622;17.912;2023-09-30T06:39:28;99545.61;;;11.73;70.56
44351;BME280;62766;62.622;17.912;2023-09-30T06:41:57;99546.18;;;11.76;70.68
44351;BME280;62766;62.622;17.912;2023-09-30T06:44:26;99547.43;;;11.87;70.66
44351;BME280;62766;62.622;17.912;2023-09-30T06:46:54;99549.31;;;11.68;70.65
44351;BME280;62766;62.622;17.912;2023-09-30T06:49:23;99545.44;;;11.91;69.93
44351;BME280;62766;62.622;17.912;2023-09-30T06:51:51;99543.71;;;11.93;69.27
44351;BME280;62766;62.622;17.912;2023-09-30T06:54:19;99541.65;;;11.92;69.13
44351;BME280;62766;62.622;17.912;2023-09-30T06:56:48;99542.54;;;11.95;69.13
44351;BME280;62766;62.622;17.912;2023-09-30T06:59:16;99544.24;;;12.06;68.70
44351;BME280;62766;62.622;17.912;2023-09-30T07:01:46;99541.19;;;12.11;68.89
44351;BME280;62766;62.622;17.912;2023-09-30T07:04:15;99536.08;;;12.21;68.92
44351;BME280;62766;62.622;17.912;2023-09-30T07:06:43;99536.41;;;12.39;69.22
44351;BME280;62766;62.622;17.912;2023-09-30T07:09:11;99535.90;;;12.56;69.16
44351;BME280;62766;62.622;17.912;2023-09-30T07:11:41;99532.39;;;12.66;69.04
44351;BME280;62766;62.622;17.912;2023-09-30T07:14:10;99527.52;;;12.57;68.97
44351;BME280;62766;62.622;17.912;2023-09-30T07:16:38;99527.43;;;12.79;68.99
44351;BME280;62766;62.622;17.912;2023-09-30T07:19:06;99528.31;;;12.78;68.79
44351;BME280;62766;62.622;17.912;2023-09-30T07:21:34;99522.84;;;12.86;68.80
44351;BME280;62766;62.622;17.912;2023-09-30T07:24:02;99522.81;;;13.14;68.42
44351;BME280;62766;62.622;17.912;2023-09-30T07:26:31;99520.40;;;13.08;68.88
44351;BME280;62766;62.622;17.912;2023-09-30T07:28:59;99518.98;;;13.20;68.88
44351;BME280;62766;62.622;17.912;2023-09-30T07:31:28;99513.90;;;13.38;68.69
44351;BME280;62766;62.622;17.912;2023-09-30T07:33:57;99516.09;;;13.38;68.37
44351;BME280;62766;62.622;17.912;2023-09-30T07:36:26;99520.27;;;13.33;68.23
44351;BME280;62766;62.622;17.912;2023-09-30T07:38:54;99516.52;;;13.50;66.66
44351;BME280;62766;62.622;17.912;2023-09-30T07:41:23;99517.90;;;13.29;66.90
44351;BME280;62766;62.622;17.912;2023-09-30T07:43:52;99521.88;;;13.53;66.71
44351;BME280;62766;62.622;17.912;2023-09-30T07:46:21;99521.82;;;13.61;66.89
44351;BME280;62766;62.622;17.912;2023-09-30T07:48:49;99523.55;;;13.50;67.31
44351;BME280;62766;62.622;17.912;2023-09-30T07:51:18;99528.01;;;13.50;67.45
44351;BME280;62766;62.622;17.912;2023-09-30T07:53:47;99531.03;;;13.50;67.91
44351;BME280;62766;62.622;17.912;2023-09-30T07:56:16;99531.23;;;13.62;66.88
44351;BME280;62766;62.622;17.912;2023-09-30T07:58:44;99527.25;;;13.66;66.37
44351;BME280;62766;62.622;17.912;2023-09-30T08:01:12;99529.34;;;13.62;66.72
44351;BME280;62766;62.622;17.912;2023-09-30T08:03:42;99530.92;;;13.68;66.19
44351;BME280;62766;62.622;17.912;2023-09-30T08:06:11;99528.15;;;13.77;66.23
44351;BME280;62766;62.622;17.912;2023-09-30T08:08:39;99529.30;;;13.61;66.85
44351;BME280;62766;62.622;17.912;2023-09-30T08:11:08;99525.52;;;13.78;66.25
44351;BME280;62766;62.622;17.912;2023-09-30T08:13:36;99525.60;;;13.81;66.58
44351;BME280;62766;62.622;17.912;2023-09-30T08:16:04;99530.53;;;14.09;66.64
44351;BME280;62766;62.622;17.912;2023-09-30T08:18:34;99530.56;;;13.89;66.08
44351;BME280;62766;62.622;17.912;2023-09-30T08:21:02;99532.04;;;14.08;65.02
44351;BME280;62766;62.622;17.912;2023-09-30T08:23:32;99528.49;;;14.05;65.86
44351;BME280;62766;62.622;17.912;2023-09-30T08:26:01;99528.40;;;14.20;66.65
44351;BME280;62766;62.622;17.912;2023-09-30T08:28:29;99525.84;;;14.33;66.00
44351;BME280;62766;62.622;17.912;2023-09-30T08:31:02;99520.36;;;14.39;65.06
44351;BME280;62766;62.622;17.912;2023-09-30T08:33:31;99517.36;;;14.47;64.63
44351;BME280;62766;62.622;17.912;2023-09-30T08:36:02;99523.88;;;14.51;64.69
44351;BME280;62766;62.622;17.912;2023-09-30T08:38:30;99523.39;;;14.51;65.12
44351;BME280;62766;62.622;17.912;2023-09-30T08:40:59;99524.78;;;14.73;64.83
44351;BME280;62766;62.622;17.912;2023-09-30T08:43:28;99532.08;;;14.72;65.16
44351;BME280;62766;62.622;17.912;2023-09-30T08:45:57;99523.39;;;14.83;64.60
44351;BME280;62766;62.622;17.912;2023-09-30T08:48:26;99520.89;;;14.90;63.74
44351;BME280;62766;62.622;17.912;2023-09-30T08:50:55;99521.71;;;14.88;63.77
44351;BME280;62766;62.622;17.912;2023-09-30T08:53:26;99524.29;;;15.05;63.79
44351;BME280;62766;62.622;17.912;2023-09-30T08:55:56;99522.49;;;15.16;63.54
44351;BME280;62766;62.622;17.912;2023-09-30T08:58:27;99526.63;;;15.37;63.62
44351;BME280;62766;62.622;17.912;2023-09-30T09:00:56;99524.89;;;15.20;62.51
44351;BME280;62766;62.622;17.912;2023-09-30T09:03:28;99530.95;;;15.40;63.37
44351;BME280;62766;62.622;17.912;2023-09-30T09:05:57;99538.13;;;15.37;62.79
44351;BME280;62766;62.622;17.912;2023-09-30T09:08:26;99543.56;;;15.44;62.33
44351;BME280;62766;62.622;17.912;2023-09-30T09:10:57;99548.76;;;15.53;62.76
44351;BME280;62766;62.622;17.912;2023-09-30T09:13:27;99554.01;;;15.40;63.16
44351;BME280;62766;62.622;17.912;2023-09-30T09:16:11;99558.78;;;15.60;62.64
44351;BME280;62766;62.622;17.912;2023-09-30T09:18:40;99561.18;;;15.33;61.57
44351;BME280;62766;62.622;17.912;2023-09-30T09:21:09;99559.85;;;15.11;62.15
44351;BME280;62766;62.622;17.912;2023-09-30T09:23:39;99568.10;;;14.80;63.06
44351;BME280;62766;62.622;17.912;2023-09-30T09:26:10;99572.75;;;14.76;63.33
44351;BME280;62766;62.622;17.912;2023-09-30T09:28:38;99575.96;;;14.58;63.90
44351;BME280;62766;62.622;17.912;2023-09-30T09:31:23;99573.66;;;14.50;64.28
44351;BME280;62766;62.622;17.912;2023-09-30T09:33:53;99574.44;;;14.39;63.89
44351;BME280;62766;62.622;17.912;2023-09-30T09:36:38;99578.77;;;14.20;64.76
44351;BME280;62766;62.622;17.912;2023-09-30T09:39:06;99580.62;;;14.34;65.21
44351;BME280;62766;62.622;17.912;2023-09-30T09:41:49;99578.72;;;14.38;64.77
44351;BME280;62766;62.622;17.912;2023-09-30T09:44:19;99581.22;;;14.39;65.00
44351;BME280;62766;62.622;17.912;2023-09-30T09:46:50;99580.38;;;14.48;64.90
44351;BME280;62766;62.622;17.912;2023-09-30T09:49:18;99581.77;;;14.51;64.78
44351;BME280;62766;62.622;17.912;2023-09-30T09:51:48;99584.51;;;14.66;64.27
44351;BME280;62766;62.622;17.912;2023-09-30T09:54:16;99584.86;;;14.82;63.65
44351;BME280;62766;62.622;17.912;2023-09-30T09:56:45;99590.59;;;14.90;63.85
44351;BME280;62766;62.622;17.912;2023-09-30T09:59:14;99593.63;;;14.99;62.75
44351;BME280;62766;62.622;17.912;2023-09-30T10:03:19;99592.80;;;15.31;61.56
44351;BME280;62766;62.622;17.912;2023-09-30T10:05:47;99591.03;;;15.28;60.18
44351;BME280;62766;62.622;17.912;2023-09-30T10:08:16;99593.53;;;15.33;59.85
44351;BME280;62766;62.622;17.912;2023-09-30T10:10:47;99594.04;;;15.55;59.54
44351;BME280;62766;62.622;17.912;2023-09-30T10:13:50;99593.64;;;15.63;59.33
44351;BME280;62766;62.622;17.912;2023-09-30T10:16:50;99593.66;;;15.65;57.75
44351;BME280;62766;62.622;17.912;2023-09-30T10:19:20;99593.42;;;15.96;57.99
44351;BME280;62766;62.622;17.912;2023-09-30T10:22:22;99597.13;;;15.76;57.47
44351;BME280;62766;62.622;17.912;2023-09-30T10:24:52;99611.35;;;15.61;56.45
44351;BME280;62766;62.622;17.912;2023-09-30T10:27:32;99610.54;;;15.55;56.24
44351;BME280;62766;62.622;17.912;2023-09-30T10:30:07;99614.82;;;15.54;57.74
44351;BME280;62766;62.622;17.912;2023-09-30T10:33:07;99615.76;;;15.56;56.66
44351;BME280;62766;62.622;17.912;2023-09-30T10:35:44;99619.68;;;15.63;55.84
44351;BME280;62766;62.622;17.912;2023-09-30T10:38:45;99625.76;;;15.54;56.03
44351;BME280;62766;62.622;17.912;2023-09-30T10:41:49;99633.32;;;15.34;55.79
44351;BME280;62766;62.622;17.912;2023-09-30T10:44:33;99634.78;;;15.46;56.11
44351;BME280;62766;62.622;17.912;2023-09-30T10:47:34;99636.35;;;15.37;55.27
44351;BME280;62766;62.622;17.912;2023-09-30T10:50:04;99641.71;;;15.25;55.98
44351;BME280;62766;62.622;17.912;2023-09-30T10:53:17;99644.13;;;15.35;55.30
44351;BME280;62766;62.622;17.912;2023-09-30T10:55:54;99649.31;;;15.31;56.04
44351;BME280;62766;62.622;17.912;2023-09-30T10:58:39;99650.50;;;15.23;55.37
44351;BME280;62766;62.622;17.912;2023-09-30T11:01:07;99656.97;;;15.21;56.06
44351;BME280;62766;62.622;17.912;2023-09-30T11:03:35;99660.62;;;15.13;56.90
44351;BME280;62766;62.622;17.912;2023-09-30T11:06:04;99660.24;;;15.16;56.57
44351;BME280;62766;62.622;17.912;2023-09-30T11:08:33;99666.95;;;14.95;56.57
44351;BME280;62766;62.622;17.912;2023-09-30T11:11:04;99666.70;;;15.13;57.10
44351;BME280;62766;62.622;17.912;2023-09-30T11:13:33;99671.49;;;15.06;56.46
44351;BME280;62766;62.622;17.912;2023-09-30T11:16:03;99675.37;;;14.81;57.26
44351;BME280;62766;62.622;17.912;2023-09-30T11:18:32;99681.19;;;15.04;57.29
44351;BME280;62766;62.622;17.912;2023-09-30T11:21:05;99685.86;;;14.89;57.75
44351;BME280;62766;62.622;17.912;2023-09-30T11:23:33;99689.51;;;14.87;58.38
44351;BME280;62766;62.622;17.912;2023-09-30T11:26:04;99689.45;;;14.87;58.62
44351;BME280;62766;62.622;17.912;2023-09-30T11:28:38;99692.42;;;14.84;58.19
44351;BME280;62766;62.622;17.912;2023-09-30T11:31:09;99694.84;;;14.89;58.62
44351;BME280;62766;62.622;17.912;2023-09-30T11:33:54;99695.99;;;14.90;58.49
44351;BME280;62766;62.622;17.912;2023-09-30T11:36:23;99698.98;;;14.90;59.28
44351;BME280;62766;62.622;17.912;2023-09-30T11:38:52;99699.04;;;14.84;59.26
44351;BME280;62766;62.622;17.912;2023-09-30T11:41:20;99707.31;;;14.90;58.87
44351;BME280;62766;62.622;17.912;2023-09-30T11:44:06;99702.97;;;14.70;58.24
44351;BME280;62766;62.622;17.912;2023-09-30T11:47:05;99708.12;;;14.66;58.24
44351;BME280;62766;62.622;17.912;2023-09-30T11:49:34;99710.68;;;14.59;59.40
44351;BME280;62766;62.622;17.912;2023-09-30T11:52:04;99715.88;;;14.48;58.83
44351;BME280;62766;62.622;17.912;2023-09-30T11:54:35;99719.48;;;14.38;59.01
44351;BME280;62766;62.622;17.912;2023-09-30T11:57:04;99723.82;;;14.36;59.02
44351;BME280;62766;62.622;17.912;2023-09-30T11:59:33;99725.36;;;14.34;58.22
44351;BME280;62766;62.622;17.912;2023-09-30T12:02:01;99731.19;;;14.08;58.98
44351;BME280;62766;62.622;17.912;2023-09-30T12:04:29;99730.40;;;14.10;59.21
44351;BME280;62766;62.622;17.912;2023-09-30T12:06:57;99736.87;;;14.19;59.18
44351;BME280;62766;62.622;17.912;2023-09-30T12:09:25;99739.30;;;14.29;59.72
44351;BME280;62766;62.622;17.912;2023-09-30T12:11:54;99740.69;;;14.16;59.59
44351;BME280;62766;62.622;17.912;2023-09-30T12:14:23;99740.10;;;14.05;59.72
44351;BME280;62766;62.622;17.912;2023-09-30T12:16:52;99745.46;;;13.89;59.99
44351;BME280;62766;62.622;17.912;2023-09-30T12:19:20;99751.99;;;13.68;60.28
44351;BME280;62766;62.622;17.912;2023-09-30T12:21:48;99759.65;;;13.51;61.15
44351;BME280;62766;62.622;17.912;2023-09-30T12:24:18;99761.12;;;13.61;61.37
44351;BME280;62766;62.622;17.912;2023-09-30T12:26:47;99765.64;;;13.36;61.77
44351;BME280;62766;62.622;17.912;2023-09-30T12:29:15;99764.34;;;13.40;62.11
44351;BME280;62766;62.622;17.912;2023-09-30T12:31:45;99762.15;;;13.48;62.18
44351;BME280;62766;62.622;17.912;2023-09-30T12:34:13;99774.35;;;13.52;62.27
44351;BME280;62766;62.622;17.912;2023-09-30T12:36:42;99776.17;;;13.49;62.42
44351;BME280;62766;62.622;17.912;2023-09-30T12:39:11;99779.96;;;13.31;63.32
44351;BME280;62766;62.622;17.912;2023-09-30T12:41:41;99785.55;;;13.35;63.61
44351;BME280;62766;62.622;17.912;2023-09-30T12:44:10;99787.62;;;13.40;63.47
44351;BME280;62766;62.622;17.912;2023-09-30T12:46:40;99791.69;;;13.43;64.18
44351;BME280;62766;62.622;17.912;2023-09-30T12:49:09;99793.96;;;13.34;64.26
44351;BME280;62766;62.622;17.912;2023-09-30T12:51:38;99797.63;;;13.51;64.54
44351;BME280;62766;62.622;17.912;2023-09-30T12:54:06;99807.49;;;13.34;64.87
44351;BME280;62766;62.622;17.912;2023-09-30T12:56:34;99810.37;;;13.36;65.24
44351;BME280;62766;62.622;17.912;2023-09-30T12:59:02;99811.27;;;13.31;66.25
44351;BME280;62766;62.622;17.912;2023-09-30T13:01:30;99814.91;;;13.25;67.23
44351;BME280;62766;62.622;17.912;2023-09-30T13:03:59;99815.62;;;13.12;69.14
44351;BME280;62766;62.622;17.912;2023-09-30T13:06:27;99824.42;;;13.13;70.14
44351;BME280;62766;62.622;17.912;2023-09-30T13:08:55;99821.24;;;12.94;70.19